Time;durP1;ratioP1;P1;durP2;ratioP2;P2;SDS_P1;SDS_P2;PMS_P1;PMS_P2;Temp;Humidity;BMP_temperature;BMP_pressure;BME280_temperature;BME280_humidity;BME280_pressure;Samples;Min_cycle;Max_cycle;Signal;HPM_P1;HPM_P2
2022/04/17 00:02:24;;;;;;;7.15;4.40;;;1.00;1.00;;;1.02;98.84;100088.22;4998611;28;120011;-72
2022/04/17 00:04:53;;;;;;;6.72;3.65;;;0.90;1.00;;;0.85;100.00;100092.66;4998015;28;119395;-72
2022/04/17 00:07:22;;;;;;;7.43;4.03;;;0.90;1.00;;;0.93;99.45;100081.59;4998573;28;129842;-72
2022/04/17 00:09:51;;;;;;;7.53;4.55;;;0.90;1.00;;;0.91;99.61;100081.03;4998633;28;129511;-71
2022/04/17 00:12:20;;;;;;;9.07;4.13;;;0.90;1.00;;;0.83;98.94;100089.41;4997267;28;122142;-71
2022/04/17 00:14:48;;;;;;;5.60;3.55;;;0.90;1.00;;;0.87;98.52;100087.88;4998879;28;121860;-71
2022/04/17 00:17:17;;;;;;;8.15;3.80;;;0.80;1.00;;;0.96;98.14;100089.16;4998582;28;129998;-71
2022/04/17 00:19:45;;;;;;;6.10;3.80;;;0.80;1.00;;;0.91;97.27;100091.72;5016873;28;129729;-74
2022/04/17 00:22:14;;;;;;;7.60;3.83;;;0.80;1.00;;;0.88;97.19;100089.50;4998427;28;119725;-73
2022/04/17 00:24:43;;;;;;;7.32;3.63;;;0.80;1.00;;;0.82;97.60;100093.09;5005114;28;119781;-72
2022/04/17 00:27:13;;;;;;;5.30;2.90;;;0.80;1.00;;;0.78;97.21;100091.94;5003738;28;129481;-70
2022/04/17 00:29:44;;;;;;;5.35;3.00;;;0.80;1.00;;;0.65;97.26;100088.44;5005136;28;129288;-71
2022/04/17 00:32:12;;;;;;;5.57;3.33;;;0.80;1.00;;;0.71;97.39;100081.38;5002226;28;120391;-72
2022/04/17 00:34:41;;;;;;;6.22;3.30;;;0.80;1.00;;;0.76;96.79;100089.50;5003883;28;118783;-72
2022/04/17 00:37:10;;;;;;;4.97;3.00;;;0.80;1.00;;;0.63;97.33;100090.53;4985785;28;129762;-72
2022/04/17 00:39:40;;;;;;;5.38;3.38;;;0.70;1.00;;;0.51;97.98;100087.03;5019760;28;129379;-70
2022/04/17 00:42:10;;;;;;;4.20;2.92;;;0.70;1.00;;;0.62;97.31;100086.22;5002006;28;119665;-72
2022/04/17 00:44:39;;;;;;;6.90;3.30;;;0.60;1.00;;;0.64;97.15;100088.66;5005062;28;119942;-72
2022/04/17 00:47:11;;;;;;;8.48;3.95;;;0.60;1.00;;;0.49;98.42;100086.47;5001685;28;129624;-72
2022/04/17 00:49:40;;;;;;;6.15;3.47;;;0.60;1.00;;;0.43;98.86;100087.38;5001431;28;129561;-72
2022/04/17 00:52:09;;;;;;;6.13;3.22;;;0.50;1.00;;;0.45;98.96;100093.31;5000635;28;119712;-71
2022/04/17 00:54:43;;;;;;;5.65;3.50;;;0.40;1.00;;;0.35;100.00;100094.69;5002427;28;119669;-73
2022/04/17 00:57:15;;;;;;;7.07;3.80;;;0.40;1.00;;;0.27;100.00;100087.00;5001439;28;130279;-73
2022/04/17 00:59:48;;;;;;;6.63;3.63;;;0.40;1.00;;;0.30;100.00;100091.88;4983243;28;129724;-74
2022/04/17 01:02:18;;;;;;;6.32;3.88;;;0.30;1.00;;;0.15;100.00;100091.50;4999187;28;122470;-74
2022/04/17 01:04:48;;;;;;;6.50;3.90;;;0.30;1.00;;;0.22;100.00;100094.91;5001746;28;121783;-73
2022/04/17 01:07:17;;;;;;;7.43;3.95;;;0.30;1.00;;;0.22;100.00;100092.22;5000870;28;130242;-73
2022/04/17 01:09:46;;;;;;;6.95;3.85;;;0.30;1.00;;;0.32;100.00;100094.31;5003571;28;129171;-74
2022/04/17 01:12:16;;;;;;;6.35;3.85;;;0.30;1.00;;;0.12;100.00;100094.63;5003326;28;118630;-73
2022/04/17 01:14:46;;;;;;;6.53;4.05;;;0.30;1.00;;;0.21;100.00;100098.59;5004320;28;118656;-72
2022/04/17 01:17:15;;;;;;;6.30;4.00;;;0.30;1.00;;;0.20;100.00;100102.31;5002630;28;129192;-72
2022/04/17 01:19:44;;;;;;;6.50;3.75;;;0.30;1.00;;;0.23;100.00;100096.50;5003637;28;129223;-73
2022/04/17 01:22:14;;;;;;;6.68;4.00;;;0.30;1.00;;;0.19;100.00;100095.34;5001303;28;119833;-73
2022/04/17 01:27:31;;;;;;;7.30;3.75;;;0.30;1.00;;;0.14;100.00;100092.53;5001453;28;129783;-72
2022/04/17 01:30:00;;;;;;;7.35;4.35;;;0.30;1.00;;;0.10;100.00;100086.03;4983601;28;129438;-73
2022/04/17 01:32:28;;;;;;;5.93;3.75;;;0.30;1.00;;;0.04;100.00;100092.28;5001324;28;119955;-72
2022/04/17 01:34:57;;;;;;;8.23;3.55;;;0.30;1.00;;;0.09;100.00;100084.41;5002126;28;118953;-73
2022/04/17 01:37:27;;;;;;;5.63;3.40;;;0.30;1.00;;;0.13;100.00;100088.25;4986024;28;130111;-73
2022/04/17 01:39:55;;;;;;;7.05;4.00;;;0.30;1.00;;;0.16;100.00;100074.44;4999683;28;129506;-72
2022/04/17 01:42:23;;;;;;;6.35;4.13;;;0.30;1.00;;;0.24;100.00;100075.97;5000937;28;119724;-75
2022/04/17 01:44:52;;;;;;;5.80;3.75;;;0.30;1.00;;;0.15;100.00;100078.97;4986724;28;118382;-72
2022/04/17 01:47:21;;;;;;;6.18;3.78;;;0.30;1.00;;;0.22;100.00;100084.22;5000764;28;130135;-73
2022/04/17 01:49:50;;;;;;;7.38;3.95;;;0.30;1.00;;;0.22;100.00;100073.53;5000891;28;130360;-73
2022/04/17 01:52:19;;;;;;;6.65;3.50;;;0.30;2.10;;;0.29;100.00;100073.44;5018562;28;121529;-74
2022/04/17 01:54:50;;;;;;;7.50;3.85;;;0.40;2.00;;;0.25;100.00;100082.94;4999304;28;123303;-72
2022/04/17 01:57:18;;;;;;;6.65;4.00;;;0.40;1.00;;;0.30;100.00;100078.53;5000619;28;130196;-73
2022/04/17 01:59:47;;;;;;;6.65;3.72;;;0.30;1.00;;;0.23;100.00;100080.47;5019461;28;128917;-71
2022/04/17 02:02:16;;;;;;;6.93;3.90;;;0.30;1.00;;;0.17;100.00;100081.41;5000850;28;120998;-71
2022/04/17 02:04:44;;;;;;;7.30;3.90;;;0.30;1.00;;;0.31;100.00;100082.84;5000978;28;119237;-75
2022/04/17 02:07:14;;;;;;;6.20;4.15;;;0.40;1.00;;;0.32;100.00;100079.13;4985729;28;129925;-72
2022/04/17 02:09:43;;;;;;;5.57;3.40;;;0.40;1.00;;;0.25;100.00;100075.75;5018713;28;129679;-72
2022/04/17 02:12:14;;;;;;;5.95;3.50;;;0.30;1.00;;;0.39;100.00;100083.53;5003522;28;121269;-73
2022/04/17 02:14:43;;;;;;;6.85;3.97;;;0.30;1.00;;;0.28;100.00;100077.97;5006252;28;117999;-72
2022/04/17 02:17:12;;;;;;;6.15;3.45;;;0.30;1.00;;;0.26;100.00;100079.22;5005377;28;128928;-74
2022/04/17 02:19:40;;;;;;;5.93;3.47;;;0.30;1.00;;;0.30;100.00;100081.22;5004098;28;129805;-72
2022/04/17 02:22:08;;;;;;;6.10;3.60;;;0.30;1.00;;;0.31;100.00;100084.69;4986537;28;118739;-73
2022/04/17 02:24:37;;;;;;;5.93;3.47;;;0.30;1.00;;;0.20;100.00;100075.59;5002455;28;118975;-73
2022/04/17 02:27:06;;;;;;;7.07;3.63;;;0.30;1.00;;;0.28;100.00;100077.97;5000119;28;130346;-71
2022/04/17 02:29:36;;;;;;;5.57;3.65;;;0.30;1.00;;;0.18;100.00;100083.03;5001838;28;128809;-73
2022/04/17 02:32:06;;;;;;;6.13;3.45;;;0.30;1.00;;;0.17;100.00;100081.41;4999874;28;120358;-72
2022/04/17 02:34:35;;;;;;;6.35;3.75;;;0.30;1.00;;;0.23;100.00;100079.69;5000647;28;119922;-71
2022/04/17 02:37:03;;;;;;;5.60;3.45;;;0.20;1.00;;;0.30;100.00;100083.88;5018379;28;129611;-71
2022/04/17 02:39:33;;;;;;;6.20;3.47;;;0.20;1.00;;;0.35;99.75;100088.53;4999933;28;130294;-70
2022/04/17 02:42:01;;;;;;;6.15;4.10;;;0.20;1.00;;;0.22;100.00;100080.72;4998428;28;122552;-70
2022/04/17 02:44:30;;;;;;;6.22;3.70;;;0.20;1.00;;;0.18;100.00;100080.38;5002847;28;121798;-71
2022/04/17 02:49:46;;;;;;;7.97;4.20;;;0.10;1.00;;;0.06;100.00;100090.19;5001565;28;128888;-71
2022/04/17 02:52:15;;;;;;;6.80;4.10;;;0.10;1.00;;;0.05;100.00;100089.38;4999979;28;120303;-71
2022/04/17 02:54:44;;;;;;;8.85;4.43;;;0.10;1.00;;;0.14;99.89;100085.34;5001488;28;119002;-73
2022/04/17 02:57:13;;;;;;;9.02;4.78;;;0.10;1.00;;;0.15;99.74;100083.50;4999611;28;130031;-71
2022/04/17 02:59:42;;;;;;;8.27;4.55;;;0.00;1.00;;;0.05;99.99;100088.56;4985031;28;130261;-73
2022/04/17 03:07:44;;;;;;;10.15;4.95;;;-0.10;1.00;;;0.12;99.38;100086.63;4996844;28;130044;-70
2022/04/17 03:10:13;;;;;;;8.02;4.35;;;-0.10;1.00;;;0.21;99.21;100087.91;4984080;28;129921;-73
2022/04/17 03:12:41;;;;;;;7.75;3.92;;;-0.10;1.00;;;0.25;98.77;100089.09;4999349;28;119618;-70
2022/04/17 03:15:11;;;;;;;6.72;3.88;;;-0.20;1.00;;;0.15;98.92;100088.84;5018361;28;119276;-69
2022/04/17 03:17:41;;;;;;;8.55;4.32;;;-0.20;1.00;;;0.26;98.70;100085.38;5000952;28;129299;-70
2022/04/17 03:20:11;;;;;;;11.88;5.82;;;-0.10;1.00;;;0.31;98.20;100090.84;4999276;28;129787;-70
2022/04/17 03:22:42;;;;;;;7.60;4.72;;;-0.10;1.00;;;0.21;98.35;100090.59;5014538;28;120415;-72
2022/04/17 03:25:11;;;;;;;7.97;4.10;;;-0.10;1.00;;;0.37;98.25;100090.97;5000099;28;119636;-72
2022/04/17 03:27:43;;;;;;;8.88;4.78;;;-0.10;1.00;;;0.41;97.50;100087.63;4999320;28;130213;-73
2022/04/17 03:30:12;;;;;;;8.73;4.20;;;0.00;1.00;;;0.49;97.36;100092.63;4999292;28;129622;-74
2022/04/17 03:32:42;;;;;;;7.38;3.63;;;0.00;1.00;;;0.44;96.96;100091.69;4997894;28;122182;-73
2022/04/17 03:35:11;;;;;;;6.28;3.85;;;0.00;1.00;;;0.57;96.97;100091.47;5001311;28;121595;-74
2022/04/17 03:37:42;;;;;;;7.95;4.20;;;0.10;1.00;;;0.68;96.17;100092.53;4998999;28;129682;-73
2022/04/17 03:40:12;;;;;;;9.55;4.53;;;0.10;1.00;;;0.55;95.66;100093.56;4998813;28;129643;-75
2022/04/17 03:42:43;;;;;;;8.57;4.40;;;0.20;1.00;;;0.68;95.13;100089.84;4999683;28;119534;-72
2022/04/17 03:45:14;;;;;;;6.97;4.18;;;0.20;1.00;;;0.86;94.18;100094.28;4999242;28;119679;-72
2022/04/17 03:47:45;;;;;;;7.18;3.55;;;0.30;1.00;;;1.03;92.74;100089.84;5017267;28;129838;-76
2022/04/17 03:50:13;;;;;;;7.07;4.25;;;0.50;1.00;;;1.20;92.87;100094.47;5000860;28;129355;-73
2022/04/17 03:52:43;;;;;;;9.45;4.18;;;0.50;1.00;;;1.26;91.79;100096.19;4999298;28;120535;-73
2022/04/17 03:55:12;;;;;;;6.43;3.38;;;0.60;1.00;;;1.32;92.22;100097.13;5001008;28;118474;-74
2022/04/17 03:57:42;;;;;;;6.80;3.88;;;0.60;1.00;;;1.49;91.31;100107.91;4997018;28;131038;-73
2022/04/17 04:00:14;;;;;;;7.18;3.30;;;0.70;1.00;;;1.24;90.81;100107.13;5000539;28;129742;-73
2022/04/17 04:02:48;;;;;;;5.40;2.42;;;0.70;1.00;;;1.36;91.52;100098.31;5001093;28;119812;-72
2022/04/17 04:05:18;;;;;;;6.43;3.42;;;0.70;1.00;;;1.52;91.07;100102.09;5000793;28;119258;-73
2022/04/17 04:07:47;;;;;;;8.13;3.53;;;0.80;1.00;;;1.63;89.40;100103.91;4998401;28;130012;-73
2022/04/17 04:10:17;;;;;;;5.68;2.97;;;0.90;1.00;;;1.55;88.10;100107.78;4998675;28;130430;-74
2022/04/17 04:12:45;;;;;;;7.32;3.38;;;0.90;1.00;;;1.76;89.12;100108.19;4983622;28;119259;-73
2022/04/17 04:15:14;;;;;;;9.68;3.03;;;1.00;1.00;;;1.68;88.05;100114.72;4999267;28;119726;-72
2022/04/17 04:17:45;;;;;;;6.18;2.70;;;1.10;1.00;;;1.50;87.62;100110.34;5000165;28;130167;-73
2022/04/17 04:20:14;;;;;;;4.15;2.53;;;1.00;1.00;;;1.32;87.14;100119.31;4998555;28;129458;-72
2022/04/17 04:22:43;;;;;;;4.57;2.72;;;1.10;1.00;;;1.56;86.81;100124.66;5016141;28;121915;-73
2022/04/17 04:25:11;;;;;;;4.35;2.60;;;1.20;1.00;;;1.50;86.98;100115.69;4998702;28;121822;-73
2022/04/17 04:30:25;;;;;;;3.95;2.38;;;1.30;1.00;;;1.73;85.68;100125.53;4998472;28;129280;-71
2022/04/17 04:32:57;;;;;;;5.53;2.53;;;1.30;1.00;;;1.72;84.79;100123.09;4998652;28;119407;-73
2022/04/17 04:35:29;;;;;;;4.57;2.67;;;1.30;1.00;;;1.80;84.22;100123.53;4998697;28;119204;-70
2022/04/17 04:37:59;;;;;;;4.40;2.45;;;1.30;1.00;;;1.58;85.41;100119.88;4998215;28;129894;-71
2022/04/17 04:40:29;;;;;;;4.70;2.42;;;1.30;1.00;;;1.62;85.15;100123.69;5000387;28;129066;-72
2022/04/17 04:43:01;;;;;;;4.18;2.70;;;1.40;1.00;;;1.77;83.47;100126.66;4997473;28;119578;-71
2022/04/17 04:49:29;;;;;;;;;;;1.40;1.00;;;1.59;84.13;100118.81;4998931;28;129807;-71
2022/04/17 04:51:08;;;;;;;4.47;2.40;;;1.40;1.00;;;2.10;83.61;100127.84;5000043;28;129817;-74
2022/04/17 04:53:36;;;;;;;4.72;2.47;;;1.50;1.00;;;2.22;82.03;100124.28;4998638;28;119648;-73
2022/04/17 04:56:07;;;;;;;4.25;2.28;;;1.60;1.00;;;2.10;83.15;100118.97;4983742;28;119567;-74
2022/04/17 04:58:36;;;;;;;4.03;2.25;;;1.60;1.00;;;2.24;82.06;100119.50;4999545;28;130541;-73
2022/04/17 05:01:05;;;;;;;4.38;2.30;;;1.70;1.00;;;2.42;81.21;100121.97;4998182;28;129320;-72
2022/04/17 05:03:35;;;;;;;5.03;2.60;;;1.80;1.00;;;2.60;80.29;100114.75;4983426;28;118632;-72
2022/04/17 05:06:04;;;;;;;5.25;2.60;;;1.90;1.00;;;2.70;80.41;100122.97;4996917;28;119245;-76
2022/04/17 05:08:33;;;;;;;4.32;2.50;;;2.00;1.00;;;2.92;79.52;100124.91;4999724;28;129333;-74
2022/04/17 05:11:02;;;;;;;4.47;2.55;;;2.00;1.00;;;2.70;79.42;100114.91;5000179;28;129442;-72
2022/04/17 05:13:31;;;;;;;4.10;2.60;;;2.10;1.00;;;2.91;79.11;100117.91;5000491;28;122282;-72
2022/04/17 05:15:59;;;;;;;5.18;2.30;;;2.20;1.00;;;2.71;78.30;100119.19;5000898;28;122023;-70
2022/04/17 05:18:28;;;;;;;4.55;2.05;;;2.20;1.00;;;2.73;78.89;100122.47;4986577;28;128638;-73
2022/04/17 05:20:59;;;;;;;4.15;2.30;;;2.20;1.00;;;2.96;78.24;100120.66;5001168;28;129701;-71
2022/04/17 05:23:29;;;;;;;3.97;2.38;;;2.40;1.00;;;3.15;78.43;100118.53;5001510;28;120093;-70
2022/04/17 05:25:58;;;;;;;3.97;2.42;;;2.50;1.00;;;2.95;77.84;100124.41;5001398;28;120550;-72
2022/04/17 05:28:28;;;;;;;4.03;2.40;;;2.50;1.00;;;3.29;77.59;100113.59;5002681;28;129532;-71
2022/04/17 05:30:58;;;;;;;4.55;2.47;;;2.70;1.00;;;3.52;75.36;100115.25;5001525;28;129810;-72
2022/04/17 05:33:26;;;;;;;5.13;2.58;;;2.80;1.00;;;3.56;75.63;100108.31;5001202;28;119611;-73
2022/04/17 05:35:55;;;;;;;4.10;2.40;;;2.90;1.00;;;3.51;74.97;100114.44;5001327;28;119445;-70
2022/04/17 05:38:25;;;;;;;4.35;2.53;;;2.90;1.00;;;3.85;75.15;100119.69;4999749;28;130711;-71
2022/04/17 05:40:55;;;;;;;6.03;2.97;;;3.10;1.00;;;3.86;75.43;100115.91;5000741;28;129687;-72
2022/04/17 05:43:24;;;;;;;4.05;2.10;;;3.20;1.00;;;4.05;73.11;100124.47;5001928;28;118174;-73
2022/04/17 05:45:53;;;;;;;3.72;1.98;;;3.20;1.00;;;4.13;72.75;100121.31;5000967;28;119453;-72
2022/04/17 05:48:21;;;;;;;5.82;2.42;;;3.20;1.00;;;3.91;72.06;100121.34;5002372;28;130243;-73
2022/04/17 05:50:49;;;;;;;3.22;1.80;;;3.30;1.00;;;3.90;72.08;100124.28;5002398;28;129170;-72
2022/04/17 05:53:19;;;;;;;4.15;2.33;;;3.40;1.00;;;4.22;70.82;100116.28;4999232;28;119817;-73
2022/04/17 05:55:50;;;;;;;6.20;2.42;;;3.50;1.00;;;4.30;70.60;100126.59;4986506;28;119045;-71
2022/04/17 05:58:18;;;;;;;5.03;2.45;;;3.60;1.00;;;4.39;68.69;100118.06;5002428;28;129602;-73
2022/04/17 06:00:47;;;;;;;3.88;1.80;;;3.70;1.00;;;4.20;66.38;100117.63;5000533;28;130398;-72
2022/04/17 06:03:15;;;;;;;2.38;1.30;;;3.60;1.00;;;4.06;66.14;100122.56;4999053;28;122011;-73
2022/04/17 06:05:44;;;;;;;2.88;1.52;;;3.60;1.00;;;4.17;67.53;100113.56;5002794;28;121727;-73
2022/04/17 06:08:13;;;;;;;4.10;2.20;;;3.70;1.00;;;4.27;67.42;100112.84;5000494;28;130588;-71
2022/04/17 06:10:42;;;;;;;4.57;1.75;;;3.80;1.00;;;4.25;64.17;100110.41;5000326;28;130172;-75
2022/04/17 06:13:12;;;;;;;3.08;1.70;;;3.80;1.00;;;4.25;63.83;100115.78;4986099;28;118829;-76
2022/04/17 06:15:40;;;;;;;3.33;1.58;;;3.90;1.00;;;4.09;62.53;100116.69;5001370;28;119445;-70
2022/04/17 06:18:09;;;;;;;4.15;1.58;;;3.90;1.00;;;4.20;61.43;100120.31;4998869;28;129964;-72
2022/04/17 06:20:38;;;;;;;3.83;1.70;;;3.90;1.00;;;4.09;61.82;100117.50;5001973;28;128952;-70
2022/04/17 06:23:06;;;;;;;3.45;1.38;;;3.90;1.00;;;4.42;60.42;100106.78;5000154;28;119683;-72
2022/04/17 06:25:36;;;;;;;3.75;1.45;;;4.10;1.00;;;4.79;61.44;100114.88;5000534;28;119841;-72
2022/04/17 06:28:05;;;;;;;2.90;1.55;;;4.30;1.00;;;4.89;59.54;100119.53;4997713;28;129759;-73
2022/04/17 06:30:35;;;;;;;4.18;1.67;;;4.40;1.00;;;5.18;59.83;100122.69;4999710;28;129963;-73
2022/04/17 06:33:05;;;;;;;3.05;1.40;;;4.50;1.00;;;5.01;58.93;100111.28;5000345;28;120735;-72
2022/04/17 06:35:33;;;;;;;2.47;1.75;;;4.50;1.00;;;5.18;58.22;100108.41;5000422;28;119173;-72
2022/04/17 06:38:05;;;;;;;3.72;1.52;;;4.50;1.00;;;5.22;57.21;100115.72;4999955;28;130570;-70
2022/04/17 06:40:36;;;;;;;2.28;1.25;;;4.60;1.00;;;5.36;56.29;100102.59;4998272;28;130192;-73
2022/04/17 06:43:08;;;;;;;2.67;1.50;;;4.60;1.00;;;5.67;56.40;100118.06;5001288;28;120125;-72
2022/04/17 06:45:39;;;;;;;3.75;1.50;;;4.70;1.00;;;5.80;57.10;100114.88;5000597;28;119797;-72
2022/04/17 06:48:15;;;;;;;2.40;1.40;;;4.90;1.00;;;5.50;55.97;100118.25;5000055;28;130413;-71
2022/04/17 06:50:45;;;;;;;3.42;1.63;;;4.90;1.00;;;5.83;55.48;100110.84;4999904;28;129671;-72
2022/04/17 06:53:14;;;;;;;3.63;1.23;;;5.00;1.00;;;5.71;55.30;100113.78;5014495;28;122565;-72
2022/04/17 06:55:43;;;;;;;2.75;1.30;;;5.00;1.00;;;5.65;54.18;100115.63;5000083;28;121748;-75
2022/04/17 06:58:12;;;;;;;2.95;1.50;;;5.00;1.00;;;5.39;51.38;100118.22;4984270;28;129979;-73
2022/04/17 07:00:42;;;;;;;3.10;1.45;;;5.00;1.00;;;5.70;50.25;100118.38;4999920;28;129365;-73
2022/04/17 07:03:10;;;;;;;2.83;1.20;;;5.10;1.00;;;5.74;53.12;100119.44;5000056;28;119973;-73
2022/04/17 07:05:39;;;;;;;3.60;1.55;;;5.20;1.00;;;5.85;49.33;100124.88;5002943;28;119448;-74
2022/04/17 07:08:08;;;;;;;1.92;1.17;;;5.30;1.00;;;5.34;47.59;100115.50;4984941;28;130050;-73
2022/04/17 07:10:39;;;;;;;2.28;1.13;;;5.10;1.00;;;5.53;49.76;100109.66;5000057;28;129434;-71
2022/04/17 07:13:11;;;;;;;3.33;1.33;;;5.10;1.00;;;5.73;49.34;100106.22;4999973;28;119623;-74
2022/04/17 07:15:40;;;;;;;2.55;1.17;;;5.30;1.00;;;5.67;50.94;100113.50;4998637;28;119534;-72
2022/04/17 07:18:09;;;;;;;1.63;1.27;;;5.30;1.00;;;6.06;49.52;100110.41;4996691;28;131350;-73
2022/04/17 07:20:38;;;;;;;2.78;1.40;;;5.50;1.00;;;6.21;48.56;100109.63;4999696;28;130372;-71
2022/04/17 07:23:07;;;;;;;2.17;1.15;;;5.60;1.00;;;6.70;48.93;100107.47;4998311;28;119322;-72
2022/04/17 07:25:36;;;;;;;5.05;1.70;;;5.70;1.00;;;6.18;48.42;100109.34;4991732;28;119944;-74
2022/04/17 07:28:06;;;;;;;3.45;1.60;;;5.60;1.00;;;6.22;47.67;100108.56;4979563;28;128766;-73
2022/04/17 07:30:35;;;;;;;4.22;1.98;;;5.60;1.00;;;6.41;47.05;100111.53;4985526;28;129747;-73
2022/04/17 07:33:05;;;;;;;4.40;1.88;;;5.90;1.00;;;6.80;46.71;100102.91;4997686;28;119746;-72
2022/04/17 07:35:34;;;;;;;2.47;1.20;;;6.00;1.00;;;6.81;46.05;100099.13;4998010;28;119315;-72
2022/04/17 07:38:04;;;;;;;3.17;1.30;;;6.00;1.00;;;7.05;47.24;100095.84;4998378;28;130377;-71
2022/04/17 07:40:35;;;;;;;2.00;1.55;;;6.10;1.00;;;6.95;46.35;100107.47;4998418;28;130188;-71
2022/04/17 07:43:06;;;;;;;2.72;1.17;;;6.10;1.00;;;7.14;46.54;100102.31;4978858;28;120890;-73
2022/04/17 07:45:36;;;;;;;2.28;1.30;;;6.20;1.00;;;7.60;46.00;100105.94;4977236;28;121818;-71
2022/04/17 07:48:07;;;;;;;3.70;1.70;;;6.40;1.00;;;7.44;45.40;100100.59;4993851;28;129909;-75
2022/04/17 07:50:36;;;;;;;3.58;1.45;;;6.40;1.00;;;7.05;45.07;100101.25;4978426;28;130139;-76
2022/04/17 07:53:04;;;;;;;2.33;1.30;;;6.20;1.00;;;6.70;44.30;100086.72;4978532;28;120483;-74
2022/04/17 07:55:34;;;;;;;3.13;1.55;;;6.10;1.00;;;6.99;44.03;100107.72;4977613;28;120112;-75
2022/04/17 07:58:07;;;;;;;2.13;1.30;;;6.10;1.00;;;6.72;45.76;100095.34;4977106;28;130101;-73
2022/04/17 08:00:45;;;;;;;2.65;1.42;;;6.00;1.00;;;6.39;46.96;100097.53;4978299;28;130367;-76
2022/04/17 08:03:24;;;;;;;2.67;1.40;;;6.00;1.00;;;6.59;43.89;100085.09;4977835;28;119505;-72
2022/04/17 08:05:53;;;;;;;2.10;1.15;;;6.20;1.00;;;7.07;43.11;100090.97;4977546;28;119628;-74
2022/04/17 08:08:23;;;;;;;3.40;1.65;;;6.50;1.00;;;6.70;45.16;100081.34;4975830;28;129851;-74
2022/04/17 08:10:52;;;;;;;3.45;1.60;;;6.30;1.00;;;6.98;44.24;100098.84;4988177;28;129502;-70
2022/04/17 08:13:22;;;;;;;2.83;1.50;;;6.30;1.00;;;7.55;44.18;100074.34;4996411;28;120061;-71
2022/04/17 08:15:51;;;;;;;4.07;1.38;;;6.50;1.00;;;7.61;44.70;100080.56;4996162;28;119820;-71
2022/04/17 08:18:21;;;;;;;2.92;1.27;;;6.70;1.00;;;7.24;42.94;100079.06;5011418;28;130414;-74
2022/04/17 08:20:49;;;;;;;2.08;1.38;;;6.70;1.00;;;6.90;41.89;100079.69;4995899;28;129743;-71
2022/04/17 08:23:18;;;;;;;2.85;1.42;;;6.50;1.00;;;6.93;42.45;100089.94;4997884;28;120339;-71
2022/04/17 08:25:46;;;;;;;3.17;1.52;;;6.60;1.00;;;7.06;38.97;100078.56;4997846;28;119444;-71
2022/04/17 08:28:15;;;;;;;3.53;1.65;;;6.70;1.00;;;7.62;39.25;100071.34;4998609;28;128693;-70
2022/04/17 08:30:44;;;;;;;2.55;1.30;;;6.90;1.00;;;7.70;38.56;100063.47;4990023;28;129249;-70
2022/04/17 08:33:12;;;;;;;2.28;1.20;;;7.00;1.00;;;7.71;38.26;100057.00;4996021;28;122201;-66
2022/04/17 08:35:42;;;;;;;1.63;1.08;;;7.00;1.00;;;8.43;37.20;100050.25;4981712;28;120643;-71
2022/04/17 08:38:11;;;;;;;2.78;1.27;;;7.30;1.00;;;7.82;37.75;100062.31;4998772;28;129709;-72
2022/04/17 08:40:41;;;;;;;2.65;1.10;;;7.00;1.00;;;8.30;37.60;100050.94;4996108;28;131572;-71
2022/04/17 08:43:11;;;;;;;2.28;1.17;;;7.30;1.00;;;8.05;36.99;100055.44;4998286;28;119348;-70
2022/04/17 08:45:40;;;;;;;2.55;1.25;;;7.10;1.00;;;8.05;37.74;100058.13;4999915;28;119712;-71
2022/04/17 08:48:09;;;;;;;1.90;1.40;;;7.30;1.00;;;7.99;37.09;100056.56;4999894;28;130239;-72
2022/04/17 08:50:38;;;;;;;2.03;1.20;;;7.20;1.00;;;7.88;38.21;100043.13;5000038;28;129346;-72
2022/04/17 08:53:10;;;;;;;2.15;1.15;;;7.20;1.00;;;7.97;35.86;100043.31;5000570;28;119429;-72
2022/04/17 08:55:40;;;;;;;2.45;1.02;;;7.30;1.00;;;8.07;35.43;100047.84;5000040;28;119464;-72
2022/04/17 08:58:11;;;;;;;2.20;1.10;;;7.10;1.00;;;8.08;36.37;100034.03;5000561;28;130057;-72
2022/04/17 09:00:40;;;;;;;2.53;1.40;;;7.30;1.00;;;8.21;35.40;100031.78;4999222;28;129636;-71
2022/04/17 09:03:10;;;;;;;1.50;0.90;;;7.30;1.00;;;8.38;34.45;100031.38;5000448;28;119489;-71
2022/04/17 09:05:39;;;;;;;2.13;1.10;;;7.40;1.00;;;8.00;36.09;100036.56;5000200;28;119181;-72
2022/04/17 09:08:17;;;;;;;2.30;1.10;;;7.20;1.00;;;8.03;36.29;100025.97;5001703;28;128666;-72
2022/04/17 09:10:55;;;;;;;1.58;1.10;;;7.30;1.00;;;8.36;34.39;100017.34;4999385;28;129749;-72
2022/04/17 09:13:30;;;;;;;2.08;1.20;;;7.50;1.00;;;8.53;35.01;100012.34;5000099;28;120754;-71
2022/04/17 09:15:59;;;;;;;2.97;1.10;;;7.60;1.00;;;8.82;35.39;100019.66;5000463;28;119827;-71
2022/04/17 09:18:32;;;;;;;3.08;1.10;;;7.70;1.00;;;8.53;31.89;100012.34;5001235;28;129390;-72
2022/04/17 09:21:02;;;;;;;1.77;1.10;;;7.60;1.00;;;8.36;34.39;100020.03;5001320;28;129169;-71
2022/04/17 09:23:40;;;;;;;2.90;1.10;;;7.60;1.00;;;8.38;33.75;99999.75;5001398;28;122052;-72
2022/04/17 09:26:09;;;;;;;3.20;1.48;;;7.60;1.00;;;8.64;33.53;100007.66;4998044;28;121811;-71
2022/04/17 09:28:39;;;;;;;1.50;1.05;;;7.70;1.00;;;8.68;33.28;99997.03;5001454;28;129729;-72
2022/04/17 09:31:14;;;;;;;1.95;1.05;;;7.70;1.00;;;8.71;34.21;100012.72;4998991;28;129664;-70
2022/04/17 09:33:49;;;;;;;2.10;1.10;;;7.80;1.00;;;9.00;32.38;99994.50;4998347;28;120315;-70
2022/04/17 09:36:18;;;;;;;2.63;1.27;;;8.00;1.00;;;9.45;36.17;100001.56;5000284;28;120110;-71
2022/04/17 09:38:48;;;;;;;2.35;1.30;;;8.20;1.00;;;9.19;36.08;100007.28;4999727;28;129902;-71
2022/04/17 09:41:19;;;;;;;3.63;1.45;;;8.20;1.00;;;8.71;35.47;100010.00;4999147;28;129389;-71
2022/04/17 09:43:48;;;;;;;3.05;1.25;;;7.80;1.00;;;9.06;34.87;100008.81;5001604;28;119167;-70
2022/04/17 09:46:17;;;;;;;2.20;1.25;;;8.10;1.00;;;8.72;32.42;100003.50;4999691;28;119574;-70
2022/04/17 09:48:46;;;;;;;2.90;1.20;;;7.80;1.00;;;8.80;34.78;100005.56;5000371;28;130305;-71
2022/04/17 09:51:23;;;;;;;2.20;1.20;;;7.80;1.00;;;8.89;33.59;99993.03;4999560;28;129535;-73
2022/04/17 09:54:05;;;;;;;2.90;1.20;;;8.00;1.00;;;9.43;32.46;99988.31;4998010;28;119564;-71
2022/04/17 09:56:37;;;;;;;1.92;1.13;;;8.30;1.00;;;9.02;31.16;99994.22;4999164;28;119411;-70
2022/04/17 09:59:17;;;;;;;3.22;1.50;;;8.20;1.00;;;9.06;32.06;99983.66;4999627;28;129903;-70
2022/04/17 10:01:49;;;;;;;1.75;1.15;;;8.10;1.00;;;9.35;31.54;99983.56;4999880;28;130644;-73
2022/04/17 10:04:19;;;;;;;2.20;1.15;;;8.20;1.00;;;9.64;31.97;99986.09;4998819;28;119578;-70
2022/04/17 10:06:48;;;;;;;1.63;1.10;;;8.50;1.00;;;9.71;31.08;99986.56;5000339;28;119377;-74
2022/04/17 10:09:20;;;;;;;1.52;0.90;;;8.40;1.00;;;9.52;31.64;99972.19;4999609;28;130085;-71
2022/04/17 10:11:51;;;;;;;2.60;1.10;;;8.40;1.00;;;10.66;32.66;99966.56;4999222;28;129527;-73
2022/04/17 10:14:19;;;;;;;2.90;1.20;;;9.00;1.00;;;10.22;30.22;99981.41;4998085;28;122037;-75
2022/04/17 10:16:49;;;;;;;2.20;1.23;;;9.10;1.00;;;9.44;31.24;99973.69;5001135;28;122026;-72
2022/04/17 10:19:21;;;;;;;1.77;0.98;;;8.50;1.00;;;9.37;29.56;99983.25;4999477;28;129851;-74
2022/04/17 10:21:51;;;;;;;2.20;1.10;;;8.20;1.00;;;9.08;30.21;99968.72;4999214;28;129313;-71
2022/04/17 10:24:22;;;;;;;1.65;1.00;;;8.20;1.00;;;9.29;30.63;99958.44;4999571;28;119679;-71
2022/04/17 10:26:54;;;;;;;1.25;0.80;;;8.20;1.00;;;9.66;29.08;99966.84;4998663;28;120580;-72
2022/04/17 10:29:27;;;;;;;1.88;1.02;;;8.60;1.00;;;9.97;29.22;99975.34;4997442;28;129874;-74
2022/04/17 10:32:30;;;;;;;2.83;1.00;;;8.80;1.00;;;9.43;29.19;99952.31;5001412;28;129149;-73
2022/04/17 10:35:26;;;;;;;1.27;0.98;;;8.50;1.00;;;9.67;29.94;99947.59;4986113;28;120289;-73
2022/04/17 10:38:25;;;;;;;1.42;1.00;;;8.50;1.00;;;8.60;28.49;99942.47;4999843;28;119029;-74
2022/04/17 10:40:59;;;;;;;1.75;1.20;;;8.10;1.00;;;8.45;30.50;99953.47;4997999;28;129871;-71
2022/04/17 10:43:55;;;;;;;2.05;1.10;;;7.90;1.00;;;8.78;31.42;99938.22;5000409;28;129816;-73
2022/04/17 10:46:24;;;;;;;2.47;1.00;;;8.10;1.00;;;8.51;32.22;99962.31;5000154;28;119961;-72
2022/04/17 10:48:54;;;;;;;3.72;1.33;;;7.90;1.00;;;8.52;32.51;99943.09;5017520;28;118220;-74
2022/04/17 10:51:25;;;;;;;1.83;1.05;;;7.90;1.00;;;9.42;30.35;99947.97;4998864;28;130001;-72
2022/04/17 10:54:04;;;;;;;1.45;1.10;;;8.50;1.00;;;10.20;29.14;99943.75;4999394;28;129638;-72
2022/04/17 10:56:36;;;;;;;2.22;1.30;;;8.90;1.00;;;9.96;28.41;99941.19;4998554;28;120332;-74